createdAt,value
2023-02-17T00:04:21.392Z,25.08
2023-02-17T00:06:48.302Z,21.85
2023-02-17T00:09:15.720Z,25.25
2023-02-17T00:11:42.706Z,21.98
2023-02-17T00:14:12.687Z,22.85
2023-02-17T00:16:39.885Z,20.38
2023-02-17T00:19:07.137Z,22.02
2023-02-17T00:21:34.197Z,22.60
2023-02-17T00:24:01.636Z,22.60
2023-02-17T00:26:36.424Z,25.23
2023-02-17T00:29:04.678Z,23.45
2023-02-17T00:31:33.319Z,23.30
2023-02-17T00:34:00.753Z,22.33
2023-02-17T00:36:28.694Z,21.77
2023-02-17T00:38:58.034Z,22.67
2023-02-17T00:41:28.080Z,26.33
2023-02-17T00:43:59.501Z,25.25
2023-02-17T00:46:27.556Z,24.52
2023-02-17T00:48:57.069Z,23.52
2023-02-17T00:51:25.396Z,22.88
2023-02-17T00:53:52.631Z,21.55
2023-02-17T00:56:20.528Z,22.05
2023-02-17T00:58:47.599Z,23.63
2023-02-17T01:01:15.399Z,22.98
2023-02-17T01:03:43.199Z,22.27
2023-02-17T01:06:21.683Z,22.27
2023-02-17T01:08:48.756Z,23.88
2023-02-17T01:11:18.290Z,22.45
2023-02-17T01:13:45.798Z,25.60
2023-02-17T01:16:18.567Z,23.77
2023-02-17T01:18:45.811Z,22.55
2023-02-17T01:21:19.213Z,25.23
2023-02-17T01:23:46.449Z,22.10
2023-02-17T01:26:14.606Z,25.13
2023-02-17T01:28:41.713Z,19.98
2023-02-17T01:31:10.887Z,22.98
2023-02-17T01:33:39.766Z,25.23
2023-02-17T01:36:11.243Z,25.33
2023-02-17T01:38:41.547Z,25.13
2023-02-17T01:41:09.736Z,22.02
2023-02-17T01:43:36.882Z,25.83
2023-02-17T01:46:07.303Z,23.10
2023-02-17T01:48:41.756Z,26.85
2023-02-17T01:51:14.526Z,22.92
2023-02-17T01:53:50.916Z,24.58
2023-02-17T01:56:20.066Z,23.13
2023-02-17T01:58:55.315Z,21.67
2023-02-17T02:01:22.868Z,22.75
2023-02-17T02:03:52.196Z,24.30
2023-02-17T02:06:25.231Z,23.52
2023-02-17T02:09:01.030Z,22.95
2023-02-17T02:11:29.363Z,20.60
2023-02-17T02:13:58.086Z,21.17
2023-02-17T02:16:35.151Z,20.80
2023-02-17T02:19:24.699Z,19.65
2023-02-17T02:22:30.150Z,19.70
2023-02-17T02:25:22.357Z,18.48
2023-02-17T02:28:06.952Z,21.05
2023-02-17T02:31:06.265Z,18.42
2023-02-17T02:33:43.187Z,17.05
2023-02-17T02:36:23.628Z,17.23
2023-02-17T02:38:59.898Z,16.00
2023-02-17T02:41:37.541Z,14.85
2023-02-17T02:44:10.263Z,14.55
2023-02-17T02:49:08.158Z,15.73
2023-02-17T02:51:54.970Z,15.90
2023-02-17T02:54:46.649Z,16.30
2023-02-17T02:57:31.364Z,13.57
2023-02-17T03:00:14.295Z,14.52
2023-02-17T03:02:49.681Z,13.50
2023-02-17T03:05:29.065Z,13.65
2023-02-17T03:08:03.522Z,12.50
2023-02-17T03:10:31.093Z,13.88
2023-02-17T03:12:58.708Z,12.43
2023-02-17T03:15:31.112Z,13.27
2023-02-17T03:18:02.333Z,13.30
2023-02-17T03:20:37.212Z,12.15
2023-02-17T03:23:07.258Z,11.80
2023-02-17T03:25:34.982Z,11.95
2023-02-17T03:28:02.116Z,9.25
2023-02-17T03:30:29.560Z,10.10
2023-02-17T03:33:02.724Z,10.43
2023-02-17T03:35:31.489Z,10.50
2023-02-17T03:37:59.912Z,10.80
2023-02-17T03:40:26.974Z,9.95
2023-02-17T03:42:56.437Z,9.73
2023-02-17T03:45:26.604Z,9.82
2023-02-17T03:47:54.034Z,9.63
2023-02-17T03:50:21.154Z,10.38
2023-02-17T03:52:50.993Z,10.45
2023-02-17T03:55:18.276Z,9.35
2023-02-17T03:57:45.114Z,9.90
2023-02-17T04:00:14.275Z,11.45
2023-02-17T04:02:44.010Z,10.32
2023-02-17T04:05:11.600Z,10.38
2023-02-17T04:07:39.020Z,10.25
2023-02-17T04:10:09.639Z,9.80
2023-02-17T04:12:40.950Z,11.50
2023-02-17T04:15:08.744Z,10.05
2023-02-17T04:17:38.307Z,9.10
2023-02-17T04:20:10.226Z,10.88
2023-02-17T04:22:37.262Z,10.23
2023-02-17T04:25:06.650Z,10.32
2023-02-17T04:27:38.472Z,10.18
2023-02-17T04:30:12.517Z,12.57
2023-02-17T04:32:40.855Z,9.90
2023-02-17T04:35:13.204Z,11.43
2023-02-17T04:37:43.323Z,10.82
2023-02-17T04:40:13.269Z,12.27
2023-02-17T04:42:41.625Z,11.05
2023-02-17T04:45:10.480Z,11.27
2023-02-17T04:47:40.491Z,10.50
2023-02-17T04:50:10.125Z,12.32
2023-02-17T04:52:40.601Z,11.32
2023-02-17T04:55:09.079Z,11.68
2023-02-17T04:57:37.668Z,11.02
2023-02-17T05:00:10.295Z,8.13
2023-02-17T05:02:38.378Z,9.85
2023-02-17T05:05:08.006Z,12.00
2023-02-17T05:07:35.221Z,12.98
2023-02-17T05:10:02.293Z,11.48
2023-02-17T05:12:31.995Z,12.77
2023-02-17T05:14:59.074Z,11.70
2023-02-17T05:17:27.801Z,12.43
2023-02-17T05:19:54.652Z,11.90
2023-02-17T05:22:21.703Z,11.27
2023-02-17T05:24:48.828Z,10.40
2023-02-17T05:27:16.255Z,11.88
2023-02-17T05:29:43.597Z,9.80
2023-02-17T05:32:10.733Z,10.70
2023-02-17T05:34:39.676Z,9.35
2023-02-17T05:37:06.853Z,11.98
2023-02-17T05:39:33.712Z,9.77
2023-02-17T05:42:00.773Z,9.60
2023-02-17T05:44:28.242Z,10.07
2023-02-17T05:46:55.292Z,10.57
2023-02-17T05:49:22.215Z,10.07
2023-02-17T05:51:50.720Z,8.90
2023-02-17T05:54:17.514Z,8.80
2023-02-17T05:56:44.459Z,10.85
2023-02-17T05:59:11.410Z,9.45
2023-02-17T06:01:38.243Z,9.52
2023-02-17T06:04:06.499Z,11.25
2023-02-17T06:06:33.322Z,11.05
2023-02-17T06:09:03.640Z,11.05
2023-02-17T06:11:30.512Z,9.45
2023-02-17T06:13:57.555Z,10.32
2023-02-17T06:16:24.543Z,9.55
2023-02-17T06:18:51.566Z,10.50
2023-02-17T06:21:18.359Z,10.95
2023-02-17T06:23:45.858Z,10.35
2023-02-17T06:26:14.529Z,11.35
2023-02-17T06:28:41.515Z,12.75
2023-02-17T06:31:08.414Z,11.75
2023-02-17T06:33:36.071Z,11.55
2023-02-17T06:36:03.089Z,12.07
2023-02-17T06:38:30.074Z,12.57
2023-02-17T06:40:56.980Z,9.63
2023-02-17T06:43:25.202Z,11.70
2023-02-17T06:45:52.117Z,10.65
2023-02-17T06:48:19.301Z,12.15
2023-02-17T06:50:46.309Z,11.82
2023-02-17T06:53:13.512Z,10.52
2023-02-17T06:55:40.388Z,9.75
2023-02-17T06:58:07.222Z,13.48
2023-02-17T07:00:35.501Z,10.82
2023-02-17T07:03:02.655Z,13.45
2023-02-17T07:05:30.070Z,14.25
2023-02-17T07:07:57.657Z,15.07
2023-02-17T07:10:24.617Z,15.18
2023-02-17T07:12:51.652Z,14.93
2023-02-17T07:15:18.859Z,15.82
2023-02-17T07:17:47.081Z,15.93
2023-02-17T07:20:14.090Z,16.95
2023-02-17T07:25:35.665Z,17.13
2023-02-17T07:28:02.819Z,17.85
2023-02-17T07:30:29.826Z,18.83
2023-02-17T07:32:58.098Z,18.77
2023-02-17T07:35:25.454Z,19.42
2023-02-17T07:37:52.489Z,18.25
2023-02-17T07:40:19.686Z,17.50
2023-02-17T07:42:46.732Z,18.20
2023-02-17T07:45:13.926Z,20.27
2023-02-17T07:47:40.920Z,17.13
2023-02-17T07:50:10.228Z,23.20
2023-02-17T07:52:37.103Z,19.25
2023-02-17T07:55:05.186Z,19.02
2023-02-17T07:57:32.323Z,19.70
2023-02-17T07:59:59.405Z,16.60
2023-02-17T08:02:26.604Z,17.58
2023-02-17T08:04:53.651Z,17.88
2023-02-17T08:07:22.207Z,19.10
2023-02-17T08:09:49.188Z,18.58
2023-02-17T08:12:18.993Z,17.50
2023-02-17T08:14:45.947Z,17.92
2023-02-17T08:17:13.049Z,17.00
2023-02-17T08:19:48.012Z,14.45
2023-02-17T08:22:16.238Z,19.35
2023-02-17T08:24:45.297Z,18.60
2023-02-17T08:27:14.183Z,18.35
2023-02-17T08:29:41.569Z,16.52
2023-02-17T08:32:09.177Z,18.73
2023-02-17T08:34:36.868Z,18.15
2023-02-17T08:37:06.532Z,17.08
2023-02-17T08:39:35.429Z,15.45
2023-02-17T08:42:04.885Z,14.85
2023-02-17T08:44:35.134Z,16.15
2023-02-17T08:47:02.463Z,15.70
2023-02-17T08:49:29.282Z,15.13
2023-02-17T08:51:56.390Z,13.70
2023-02-17T08:54:23.480Z,13.00
2023-02-17T08:56:50.545Z,12.25
2023-02-17T08:59:18.959Z,19.38
2023-02-17T09:01:46.449Z,11.85
2023-02-17T09:04:18.102Z,13.95
2023-02-17T09:06:49.094Z,13.18
2023-02-17T09:09:19.866Z,13.77
2023-02-17T09:11:46.802Z,11.07
2023-02-17T09:14:14.343Z,11.52
2023-02-17T09:16:42.743Z,12.48
2023-02-17T09:19:09.699Z,11.35
2023-02-17T09:21:37.863Z,9.77
2023-02-17T09:24:05.985Z,10.25
2023-02-17T09:26:35.459Z,9.18
2023-02-17T09:29:03.668Z,10.25
2023-02-17T09:31:32.204Z,12.00
2023-02-17T09:34:00.606Z,11.05
2023-02-17T09:36:31.199Z,7.03
2023-02-17T09:38:59.222Z,8.85
2023-02-17T09:41:34.675Z,10.80
2023-02-17T09:44:02.422Z,8.13
2023-02-17T09:49:38.562Z,8.68
2023-02-17T09:52:15.206Z,7.93
2023-02-17T09:54:55.435Z,7.78
2023-02-17T09:57:30.932Z,8.38
2023-02-17T10:00:03.670Z,7.32
2023-02-17T10:02:46.321Z,7.15
2023-02-17T10:05:20.113Z,6.85
2023-02-17T10:07:53.251Z,6.22
2023-02-17T10:10:25.986Z,7.03
2023-02-17T10:12:59.563Z,5.88
2023-02-17T10:15:32.023Z,6.03
2023-02-17T10:18:10.264Z,8.80
2023-02-17T10:20:44.218Z,6.05
2023-02-17T10:23:18.805Z,7.47
2023-02-17T10:26:12.594Z,7.50
2023-02-17T10:28:51.057Z,5.85
2023-02-17T10:31:32.812Z,7.20
2023-02-17T10:34:05.099Z,7.70
2023-02-17T10:36:47.888Z,6.68
2023-02-17T10:39:19.867Z,9.82
2023-02-17T10:41:50.452Z,8.25
2023-02-17T10:44:22.699Z,7.63
2023-02-17T10:46:51.494Z,8.63
2023-02-17T10:49:27.610Z,8.55
2023-02-17T10:52:01.635Z,9.30
2023-02-17T10:54:36.873Z,9.98
2023-02-17T10:57:12.382Z,9.88
2023-02-17T10:59:41.841Z,8.52
2023-02-17T11:02:19.392Z,9.55
2023-02-17T11:04:49.423Z,9.43
2023-02-17T11:07:23.775Z,9.40
2023-02-17T11:09:59.131Z,10.35
2023-02-17T11:12:32.891Z,10.85
2023-02-17T11:15:04.514Z,8.20
2023-02-17T11:17:39.286Z,9.82
2023-02-17T11:20:27.255Z,8.27
2023-02-17T11:23:22.209Z,7.75
2023-02-17T11:25:59.831Z,9.20
2023-02-17T11:28:27.618Z,9.52
2023-02-17T11:30:58.321Z,9.90
2023-02-17T11:33:33.182Z,8.52
2023-02-17T11:36:01.468Z,8.32
2023-02-17T11:38:43.822Z,7.53
2023-02-17T11:41:11.282Z,9.98
2023-02-17T11:43:39.726Z,10.82
2023-02-17T11:46:30.507Z,9.65
2023-02-17T11:49:37.487Z,9.05
2023-02-17T11:52:26.314Z,8.32
2023-02-17T11:55:16.020Z,9.40
2023-02-17T11:57:49.400Z,7.57
2023-02-17T12:00:20.796Z,6.53
2023-02-17T12:03:47.038Z,8.35
2023-02-17T12:06:21.183Z,7.95
2023-02-17T12:09:27.247Z,6.28
2023-02-17T12:12:11.391Z,8.90
2023-02-17T12:15:02.999Z,8.40
2023-02-17T12:17:45.245Z,8.13
2023-02-17T12:23:15.737Z,11.70
2023-02-17T12:25:50.726Z,7.07
2023-02-17T12:28:55.415Z,7.85
2023-02-17T12:31:51.827Z,9.45
2023-02-17T12:34:29.534Z,6.50
2023-02-17T12:36:58.701Z,7.63
2023-02-17T12:39:34.124Z,9.00
2023-02-17T12:42:07.367Z,7.03
2023-02-17T12:44:41.798Z,5.80
2023-02-17T12:47:16.691Z,6.20
2023-02-17T12:49:50.430Z,6.82
2023-02-17T12:52:23.782Z,6.00
2023-02-17T12:55:01.367Z,5.13
2023-02-17T12:57:41.965Z,4.15
2023-02-17T13:00:20.811Z,4.97
2023-02-17T13:02:48.304Z,5.43
2023-02-17T13:05:26.249Z,6.20
2023-02-17T13:08:00.128Z,5.72
2023-02-17T13:10:36.072Z,6.68
2023-02-17T13:13:07.885Z,7.28
2023-02-17T13:15:43.327Z,5.10
2023-02-17T13:18:26.237Z,7.55
2023-02-17T13:20:57.155Z,5.90
2023-02-17T13:23:35.471Z,7.35
2023-02-17T13:29:36.237Z,5.70
2023-02-17T13:32:07.298Z,10.27
2023-02-17T13:34:36.914Z,7.80
2023-02-17T13:37:23.816Z,8.15
2023-02-17T13:39:51.186Z,7.82
2023-02-17T13:42:37.605Z,4.68
2023-02-17T13:45:20.452Z,7.07
2023-02-17T13:47:51.239Z,7.22
2023-02-17T13:50:33.140Z,6.43
2023-02-17T13:53:01.717Z,7.45
2023-02-17T13:55:29.655Z,6.32
2023-02-17T13:57:59.153Z,4.13
2023-02-17T14:00:29.082Z,5.97
2023-02-17T14:03:02.279Z,4.97
2023-02-17T14:05:40.057Z,5.88
2023-02-17T14:08:17.115Z,4.85
2023-02-17T14:10:44.518Z,5.05
2023-02-17T14:13:13.371Z,4.40
2023-02-17T14:15:51.891Z,7.38
2023-02-17T14:18:35.047Z,9.32
2023-02-17T14:21:07.380Z,3.83
2023-02-17T14:23:47.114Z,9.00
2023-02-17T14:29:19.189Z,14.27
2023-02-17T14:31:49.219Z,8.32
2023-02-17T14:34:32.463Z,6.28
2023-02-17T14:37:09.290Z,7.05
2023-02-17T14:39:39.418Z,27.50
2023-02-17T14:42:06.694Z,7.00
2023-02-17T14:44:37.078Z,14.48
2023-02-17T14:47:04.256Z,8.25
2023-02-17T14:49:32.761Z,10.80
2023-02-17T14:52:01.648Z,15.15
2023-02-17T14:54:30.514Z,9.40
2023-02-17T14:57:04.938Z,16.35
2023-02-17T14:59:32.587Z,9.75
2023-02-17T15:02:00.253Z,11.95
2023-02-17T15:04:27.335Z,11.05
2023-02-17T15:06:55.981Z,17.95
2023-02-17T15:09:33.035Z,13.07
2023-02-17T15:11:59.921Z,9.73
2023-02-17T15:14:27.889Z,12.63
2023-02-17T15:16:54.776Z,15.40
2023-02-17T15:19:21.855Z,11.65
2023-02-17T15:21:51.658Z,15.35
2023-02-17T15:24:25.208Z,17.58
2023-02-17T15:26:53.344Z,8.10
2023-02-17T15:29:25.133Z,15.65
2023-02-17T15:31:54.950Z,12.38
2023-02-17T15:34:25.527Z,14.50
2023-02-17T15:36:52.493Z,16.55
2023-02-17T15:39:21.008Z,13.15
2023-02-17T15:41:50.472Z,9.60
2023-02-17T15:44:21.771Z,9.50
2023-02-17T15:46:51.718Z,12.15
2023-02-17T15:49:18.837Z,8.27
2023-02-17T15:51:45.788Z,10.63
2023-02-17T15:54:13.053Z,15.70
2023-02-17T15:56:47.020Z,12.77
2023-02-17T15:59:19.837Z,9.35
2023-02-17T16:01:46.772Z,18.35
2023-02-17T16:04:15.689Z,10.48
2023-02-17T16:06:43.037Z,11.48
2023-02-17T16:09:10.566Z,9.85
2023-02-17T16:11:48.519Z,14.10
2023-02-17T16:14:25.069Z,14.13
2023-02-17T16:16:52.311Z,13.68
2023-02-17T16:19:19.657Z,10.25
2023-02-17T16:21:46.532Z,9.13
2023-02-17T16:24:13.394Z,12.30
2023-02-17T16:26:44.555Z,8.55
2023-02-17T16:29:16.830Z,7.07
2023-02-17T16:34:14.904Z,9.98
2023-02-17T16:36:42.055Z,12.05
2023-02-17T16:39:16.545Z,9.35
2023-02-17T16:41:45.406Z,8.40
2023-02-17T16:44:14.066Z,12.02
2023-02-17T16:46:48.903Z,12.38
2023-02-17T16:49:20.604Z,9.93
2023-02-17T16:51:47.983Z,10.48
2023-02-17T16:54:16.995Z,12.77
2023-02-17T16:56:49.530Z,8.80
2023-02-17T16:59:19.758Z,9.32
2023-02-17T17:01:48.533Z,12.73
2023-02-17T17:04:15.408Z,5.95
2023-02-17T17:06:46.432Z,13.75
2023-02-17T17:09:16.500Z,14.13
2023-02-17T17:11:45.159Z,10.82
2023-02-17T17:14:12.295Z,12.10
2023-02-17T17:16:42.158Z,12.00
2023-02-17T17:19:14.379Z,15.35
2023-02-17T17:21:41.747Z,16.10
2023-02-17T17:24:11.503Z,9.77
2023-02-17T17:26:42.230Z,16.15
2023-02-17T17:29:14.755Z,16.25
2023-02-17T17:34:09.216Z,12.70
2023-02-17T17:36:40.130Z,16.20
2023-02-17T17:39:12.308Z,14.13
2023-02-17T17:41:39.538Z,16.35
2023-02-17T17:44:06.930Z,16.95
2023-02-17T17:46:37.720Z,21.55
2023-02-17T17:49:06.409Z,10.48
2023-02-17T17:51:34.029Z,10.25
2023-02-17T17:54:01.109Z,14.93
2023-02-17T17:56:31.263Z,15.57
2023-02-17T17:59:01.548Z,12.85
2023-02-17T18:01:33.376Z,17.08
2023-02-17T18:04:03.734Z,10.80
2023-02-17T18:06:36.818Z,15.50
2023-02-17T18:09:08.978Z,15.43
2023-02-17T18:11:39.912Z,15.40
2023-02-17T18:14:13.837Z,12.00
2023-02-17T18:16:43.219Z,14.52
2023-02-17T18:19:14.504Z,10.75
2023-02-17T18:21:41.577Z,15.70
2023-02-17T18:24:09.289Z,14.63
2023-02-17T18:26:36.601Z,11.05
2023-02-17T18:29:04.630Z,12.35
2023-02-17T18:31:32.217Z,15.75
2023-02-17T18:33:59.236Z,9.80
2023-02-17T18:36:27.859Z,12.77
2023-02-17T18:38:55.222Z,17.83
2023-02-17T18:41:25.627Z,8.15
2023-02-17T18:43:53.902Z,16.60
2023-02-17T18:46:25.840Z,18.92
2023-02-17T18:48:55.367Z,11.15
2023-02-17T18:51:23.480Z,12.77
2023-02-17T18:53:52.978Z,21.67
2023-02-17T18:56:22.966Z,16.23
2023-02-17T18:58:52.381Z,13.00
2023-02-17T19:01:23.448Z,8.35
2023-02-17T19:03:51.118Z,7.53
2023-02-17T19:06:21.836Z,12.48
2023-02-17T19:08:49.205Z,12.50
2023-02-17T19:11:20.771Z,15.25
2023-02-17T19:13:48.740Z,12.55
2023-02-17T19:16:21.846Z,15.00
2023-02-17T19:18:49.321Z,11.35
2023-02-17T19:21:17.201Z,13.55
2023-02-17T19:23:44.734Z,13.43
2023-02-17T19:26:13.826Z,11.32
2023-02-17T19:28:43.545Z,12.95
2023-02-17T19:31:15.522Z,11.20
2023-02-17T19:33:42.988Z,12.65
2023-02-17T19:36:12.908Z,16.95
2023-02-17T19:38:39.784Z,9.63
2023-02-17T19:41:10.494Z,11.88
2023-02-17T19:43:38.238Z,12.55
2023-02-17T19:46:07.623Z,12.90
2023-02-17T19:48:35.156Z,9.35
2023-02-17T19:51:06.295Z,12.75
2023-02-17T19:53:34.170Z,8.82
2023-02-17T19:56:11.556Z,9.95
2023-02-17T19:58:39.423Z,8.70
2023-02-17T20:04:05.651Z,15.05
2023-02-17T20:06:37.630Z,16.02
2023-02-17T20:09:07.731Z,8.07
2023-02-17T20:11:34.750Z,9.65
2023-02-17T20:14:02.932Z,19.13
2023-02-17T20:16:32.002Z,9.68
2023-02-17T20:19:01.924Z,9.35
2023-02-17T20:21:30.911Z,13.77
2023-02-17T20:23:58.824Z,9.75
2023-02-17T20:26:29.993Z,9.68
2023-02-17T20:29:00.621Z,9.40
2023-02-17T20:31:28.150Z,12.43
2023-02-17T20:33:56.927Z,13.25
2023-02-17T20:36:23.989Z,8.10
2023-02-17T20:38:50.912Z,7.53
2023-02-17T20:41:22.820Z,8.80
2023-02-17T20:43:51.178Z,11.10
2023-02-17T20:46:43.716Z,11.75
2023-02-17T20:49:12.862Z,7.20
2023-02-17T20:51:41.284Z,8.60
2023-02-17T20:54:08.590Z,13.98
2023-02-17T20:56:39.163Z,9.05
2023-02-17T20:59:08.037Z,13.32
2023-02-17T21:01:35.852Z,14.82
2023-02-17T21:04:02.967Z,8.57
2023-02-17T21:06:36.016Z,10.48
2023-02-17T21:09:06.974Z,10.05
2023-02-17T21:11:34.481Z,13.45
2023-02-17T21:14:01.479Z,9.98
2023-02-17T21:16:31.783Z,10.88
2023-02-17T21:19:00.405Z,8.75
2023-02-17T21:21:27.803Z,12.32
2023-02-17T21:23:57.105Z,8.43
2023-02-17T21:26:24.249Z,10.07
2023-02-17T21:29:16.198Z,11.18
2023-02-17T21:31:43.204Z,8.40
2023-02-17T21:34:10.646Z,8.98
2023-02-17T21:36:37.598Z,9.48
2023-02-17T21:39:06.105Z,8.32
2023-02-17T21:41:33.515Z,12.82
2023-02-17T21:44:01.093Z,12.68
2023-02-17T21:46:28.768Z,6.70
2023-02-17T21:48:57.032Z,11.13
2023-02-17T21:51:24.419Z,10.40
2023-02-17T21:53:52.117Z,11.48
2023-02-17T21:56:21.682Z,16.83
2023-02-17T21:58:52.540Z,5.47
2023-02-17T22:01:20.488Z,8.43
2023-02-17T22:03:47.619Z,11.85
2023-02-17T22:06:17.810Z,13.35
2023-02-17T22:08:45.651Z,10.15
2023-02-17T22:11:17.499Z,12.07
2023-02-17T22:13:46.696Z,12.55
2023-02-17T22:16:14.603Z,7.53
2023-02-17T22:18:42.219Z,13.48
2023-02-17T22:21:14.074Z,9.15
2023-02-17T22:23:43.286Z,11.07
2023-02-17T22:26:13.709Z,10.52
2023-02-17T22:28:41.810Z,9.32
2023-02-17T22:31:13.254Z,11.60
2023-02-17T22:33:40.307Z,16.08
2023-02-17T22:36:10.429Z,15.48
2023-02-17T22:38:37.904Z,13.90
2023-02-17T22:41:07.110Z,10.90
2023-02-17T22:43:36.005Z,13.27
2023-02-17T22:46:04.285Z,11.02
2023-02-17T22:48:35.827Z,13.95
2023-02-17T22:51:06.259Z,8.27
2023-02-17T22:53:35.405Z,14.85
2023-02-17T22:56:03.751Z,13.85
2023-02-17T22:58:30.868Z,10.90
2023-02-17T23:03:59.076Z,14.52
2023-02-17T23:06:29.146Z,9.77
2023-02-17T23:08:56.703Z,12.13
2023-02-17T23:11:26.473Z,8.52
2023-02-17T23:13:53.543Z,13.63
2023-02-17T23:16:20.537Z,10.10
2023-02-17T23:18:47.772Z,9.90
2023-02-17T23:21:15.938Z,15.98
2023-02-17T23:23:43.206Z,11.43
2023-02-17T23:26:10.645Z,22.45
2023-02-17T23:28:37.973Z,11.90
2023-02-17T23:31:10.816Z,12.82
2023-02-17T23:33:39.646Z,5.95
2023-02-17T23:36:09.173Z,15.00
2023-02-17T23:38:37.906Z,8.55
2023-02-17T23:41:05.144Z,12.30
2023-02-17T23:43:32.294Z,10.50
2023-02-17T23:45:59.629Z,9.70
2023-02-17T23:48:27.039Z,10.52
2023-02-17T23:50:58.995Z,11.27
2023-02-17T23:53:25.986Z,16.45
2023-02-17T23:56:04.258Z,15.98
2023-02-17T23:58:31.584Z,10.50
